Metar z połowy godziny Komunikat METAR ze strony awiacja.imgw.pl Metar G30 EPDE METAR EPDE 240500Z 15008KT 7000 OVC030 M04/M06 Q1026 RMK M041 085 8/8=